Item Display Status Humidity-temperature Sensor

Elevation Above Sea Level: 3 m

 

Deployed Sensor

  • Serial Number: 20351123
  • NDBC Property Number: 43293
  • Start Date: 4/17/2020 (10:35:43 Z)
  • End Date: Currently Active
Relative Humidity [%]     6 entries per hour
Showing data from 12/3/2021 (12:00:00 Z) to 12/2/2021 (00:00:01 Z)
Previous Next [ Day | 3-Days | 7-Days ]
First Last
Prev [ Day | 3-Days | 7-Days ] Next
First Last

Start Time:     :
End Time:     :     
Time (in GMT) :00 :50 :40 :30 :20 :10
Previous Next [ Day | 3-Days | 7-Days ]
First Last
Prev [ Day | 3-Days | 7-Days ] Next
First Last


123 => good data
MM => data is determined as missing
-- => data not received/configured
Back to Top Back to Top
12/3/2021 12:00 to 11:10 92.67 93.55 93.90 93.45 92.38 91.74
12/3/2021 11:00 to 10:10 91.70 91.15 90.94 90.90 91.03 91.50
12/3/2021 10:00 to 9:10 91.99 92.87 93.86 94.23 93.74 92.22
12/3/2021 09:00 to 8:10 91.42 91.99 92.46 92.57 93.00 93.74
12/3/2021 08:00 to 7:10 94.17 94.37 94.17 94.46 94.81 95.14
12/3/2021 07:00 to 6:10 95.59 95.63 95.28 94.89 94.85 94.81
12/3/2021 06:00 to 5:10 94.99 95.16 95.34 95.83 95.96 96.51
12/3/2021 05:00 to 4:10 96.90 97.03 97.29 97.54 97.89 97.77
12/3/2021 04:00 to 3:10 98.16 98.20 98.42 98.65 98.98 98.90
12/3/2021 03:00 to 2:10 99.16 99.41 99.37 99.59 99.72 99.74
12/3/2021 02:00 to 1:10 99.82 99.74 99.98 99.84 99.82 99.72
12/3/2021 01:00 to 0:10 99.49 99.14 98.83 98.57 98.09 97.58
12/3/2021 00:00 to 23:10 96.98 96.16 95.30 94.58 93.72 92.16
12/2/2021 23:00 to 22:10 91.40 91.58 91.23 90.61 90.35 90.12
12/2/2021 22:00 to 21:10 89.67 89.46 89.38 89.24 89.24 88.29
12/2/2021 21:00 to 20:10 87.88 88.13 88.29 88.33 88.79 88.99
12/2/2021 20:00 to 19:10 88.95 89.26 89.36 89.38 89.42 89.55
12/2/2021 19:00 to 18:10 89.38 88.58 88.97 88.95 89.65 90.04
12/2/2021 18:00 to 17:10 89.81 89.30 88.89 88.83 89.71 90.10
12/2/2021 17:00 to 16:10 90.55 90.94 91.19 91.09 90.78 90.68
12/2/2021 16:00 to 15:10 91.42 92.40 92.50 92.73 93.59 93.47
12/2/2021 15:00 to 14:10 93.47 93.94 94.05 94.40 94.50 94.46
12/2/2021 14:00 to 13:10 95.20 95.98 96.00 95.59 95.14 94.89
12/2/2021 13:00 to 12:10 95.14 95.36 95.51 95.42 95.81 95.94
12/2/2021 12:00 to 11:10 96.29 96.06 95.73 95.57 95.42 94.52
12/2/2021 11:00 to 10:10 92.73 90.92 90.55 90.70 90.88 90.86
12/2/2021 10:00 to 9:10 91.17 91.27 91.25 91.62 91.77 91.66
12/2/2021 09:00 to 8:10 91.72 92.07 92.69 93.06 93.70 94.83
12/2/2021 08:00 to 7:10 95.26 95.20 94.66 94.25 93.84 93.45
12/2/2021 07:00 to 6:10 92.83 92.79 92.92 93.45 94.09 94.25
12/2/2021 06:00 to 5:10 94.54 94.31 94.58 94.62 94.50 94.56
12/2/2021 05:00 to 4:10 94.54 93.82 93.66 93.84 93.08 92.36
12/2/2021 04:00 to 3:10 91.91 91.72 91.81 92.16 92.14 91.31
12/2/2021 03:00 to 2:10 90.68 90.98 91.15 90.94 90.20 89.87
12/2/2021 02:00 to 1:10 90.10 90.04 89.83 89.77 89.71 89.77
12/2/2021 01:00 to 0:10 90.10 89.63 90.04 90.04 90.59 90.59

 

 

 

Air Temperature [°C]     6 entries per hour
Showing data from 12/3/2021 (12:00:00 Z) to 12/2/2021 (00:00:01 Z)
Previous Next [ Day | 3-Days | 7-Days ]
First Last
Prev [ Day | 3-Days | 7-Days ] Next
First Last

Start Time:     :
End Time:     :     
Time (in GMT) :00 :50 :40 :30 :20 :10
Previous Next [ Day | 3-Days | 7-Days ]
First Last
Prev [ Day | 3-Days | 7-Days ] Next
First Last


123 => good data
MM => data is determined as missing
-- => data not received/configured
Back to Top Back to Top
12/3/2021 12:00 to 11:10 25.26 24.81 24.89 24.87 25.17 25.13
12/3/2021 11:00 to 10:10 25.17 25.27 25.27 25.30 25.45 25.56
12/3/2021 10:00 to 9:10 25.46 25.28 25.22 24.93 24.89 25.07
12/3/2021 09:00 to 8:10 25.14 25.29 25.19 25.02 24.94 24.88
12/3/2021 08:00 to 7:10 24.98 25.01 25.10 25.01 25.21 24.89
12/3/2021 07:00 to 6:10 24.74 24.82 24.77 25.01 25.16 25.06
12/3/2021 06:00 to 5:10 24.95 24.93 25.02 24.99 24.76 24.63
12/3/2021 05:00 to 4:10 24.67 24.79 24.60 24.67 24.77 24.66
12/3/2021 04:00 to 3:10 24.66 24.65 24.68 24.65 24.49 24.65
12/3/2021 03:00 to 2:10 24.44 24.28 24.39 24.35 24.42 24.33
12/3/2021 02:00 to 1:10 24.29 24.26 24.15 24.28 24.28 24.30
12/3/2021 01:00 to 0:10 24.30 24.02 24.07 24.17 23.97 24.15
12/3/2021 00:00 to 23:10 24.30 24.39 24.50 24.70 24.79 25.03
12/2/2021 23:00 to 22:10 25.24 25.26 25.34 25.50 25.60 25.78
12/2/2021 22:00 to 21:10 25.79 25.85 25.72 25.76 25.55 25.94
12/2/2021 21:00 to 20:10 25.81 25.83 25.95 25.79 25.71 25.68
12/2/2021 20:00 to 19:10 25.71 25.70 25.87 25.81 25.85 25.76
12/2/2021 19:00 to 18:10 25.94 26.00 25.74 25.79 25.65 25.91
12/2/2021 18:00 to 17:10 25.77 26.11 26.04 25.88 25.87 25.88
12/2/2021 17:00 to 16:10 25.69 25.69 25.72 25.74 25.74 25.59
12/2/2021 16:00 to 15:10 25.76 25.43 25.61 25.54 25.36 25.72
12/2/2021 15:00 to 14:10 25.60 25.56 25.39 25.25 25.19 25.23
12/2/2021 14:00 to 13:10 24.99 25.21 25.11 25.20 25.12 25.48
12/2/2021 13:00 to 12:10 25.12 25.14 24.99 25.03 25.07 24.97
12/2/2021 12:00 to 11:10 24.97 24.78 25.03 25.13 25.02 25.12
12/2/2021 11:00 to 10:10 25.32 25.67 25.66 25.65 25.64 25.53
12/2/2021 10:00 to 9:10 25.59 25.54 25.67 25.46 25.52 25.43
12/2/2021 09:00 to 8:10 25.61 25.29 25.43 25.50 25.28 25.05
12/2/2021 08:00 to 7:10 24.97 25.02 25.07 25.20 25.25 25.51
12/2/2021 07:00 to 6:10 25.45 25.49 25.41 25.30 25.26 25.41
12/2/2021 06:00 to 5:10 25.24 25.26 25.23 25.24 25.27 25.32
12/2/2021 05:00 to 4:10 25.51 25.23 25.54 25.38 25.72 25.63
12/2/2021 04:00 to 3:10 25.70 25.82 25.81 25.75 25.63 25.85
12/2/2021 03:00 to 2:10 25.90 25.78 25.83 25.93 25.81 25.75
12/2/2021 02:00 to 1:10 25.87 25.88 25.89 25.71 25.80 25.63
12/2/2021 01:00 to 0:10 25.61 25.66 25.56 25.57 25.39 25.64